Time;durP1;ratioP1;P1;durP2;ratioP2;P2;SDS_P1;SDS_P2;PMS_P1;PMS_P2;Temp;Humidity;BMP_temperature;BMP_pressure;BME280_temperature;BME280_humidity;BME280_pressure;Samples;Min_cycle;Max_cycle;Signal;HPM_P1;HPM_P2
2023/10/21 00:00:06;;;;;;;23.80;17.73;;;;;;;14.47;90.60;99194.88;5014023;28;20693;-67
2023/10/21 00:02:33;;;;;;;23.30;16.43;;;;;;;14.45;90.83;99192.44;5013966;28;20206;-66
2023/10/21 00:05:02;;;;;;;25.13;16.97;;;;;;;14.48;90.71;99199.19;5013922;28;20666;-67
2023/10/21 00:07:28;;;;;;;20.70;16.67;;;;;;;14.45;90.21;99189.78;5013981;28;20229;-67
2023/10/21 00:09:55;;;;;;;25.47;18.07;;;;;;;14.39;91.41;99190.69;5014092;28;20248;-68
2023/10/21 00:12:22;;;;;;;26.20;17.00;;;;;;;14.39;90.84;99188.03;5014057;28;20276;-67
2023/10/21 00:14:48;;;;;;;22.97;17.07;;;;;;;14.39;91.25;99197.88;5013760;28;20694;-67
2023/10/21 00:17:15;;;;;;;20.83;17.73;;;;;;;14.39;91.19;99188.03;5014113;28;20190;-67
2023/10/21 00:19:42;;;;;;;21.93;17.43;;;;;;;14.29;91.11;99185.06;5014008;28;20252;-67
2023/10/21 00:22:11;;;;;;;27.37;17.50;;;;;;;14.30;91.65;99188.56;5013640;28;20254;-68
2023/10/21 00:24:37;;;;;;;25.30;19.17;;;;;;;14.27;91.89;99191.69;5013565;28;20225;-67
2023/10/21 00:27:04;;;;;;;25.50;17.77;;;;;;;14.21;92.00;99195.28;5013910;28;20198;-67
2023/10/21 00:29:31;;;;;;;27.07;18.43;;;;;;;14.24;92.12;99190.28;5013539;28;20194;-67
2023/10/21 00:31:57;;;;;;;25.37;17.10;;;;;;;14.17;91.17;99184.19;5013219;28;20585;-67
2023/10/21 00:34:24;;;;;;;26.03;18.43;;;;;;;14.14;92.19;99189.97;5013307;28;20299;-66
2023/10/21 00:36:51;;;;;;;24.67;18.47;;;;;;;13.99;91.98;99202.91;5013775;28;20194;-66
2023/10/21 00:39:19;;;;;;;23.03;18.13;;;;;;;14.01;93.25;99200.03;5013343;28;20193;-67
2023/10/21 00:41:46;;;;;;;22.67;17.10;;;;;;;13.95;93.16;99180.38;5013387;28;20593;-66
2023/10/21 00:44:13;;;;;;;24.60;17.87;;;;;;;14.12;92.81;99208.09;5032737;28;20247;-67
2023/10/21 00:46:41;;;;;;;24.27;18.93;;;;;;;14.01;92.41;99189.34;5033441;28;20189;-67
2023/10/21 00:49:07;;;;;;;25.53;17.33;;;;;;;14.00;92.80;99183.19;5032856;28;20263;-67
2023/10/21 00:51:35;;;;;;;29.43;19.43;;;;;;;13.96;93.11;99191.84;5033289;28;20213;-67
2023/10/21 00:54:02;;;;;;;27.80;18.97;;;;;;;13.79;92.73;99194.34;5032898;28;20199;-67
2023/10/21 00:56:30;;;;;;;25.80;19.37;;;;;;;13.73;94.03;99197.88;5032808;28;20665;-67
2023/10/21 00:58:57;;;;;;;29.40;18.33;;;;;;;13.75;93.66;99190.47;5032736;28;20243;-67
2023/10/21 01:01:24;;;;;;;22.13;19.03;;;;;;;13.83;94.30;99200.03;5032994;28;20256;-66
2023/10/21 01:03:51;;;;;;;27.23;19.27;;;;;;;13.74;94.25;99193.38;5032935;28;20197;-67
2023/10/21 01:06:18;;;;;;;22.77;18.17;;;;;;;13.77;94.56;99187.59;5032581;28;20197;-67
2023/10/21 01:08:45;;;;;;;25.80;19.17;;;;;;;13.76;94.11;99192.09;5032911;28;20263;-67
2023/10/21 01:11:13;;;;;;;24.47;18.53;;;;;;;13.79;94.29;99191.66;5032672;28;20201;-67
2023/10/21 01:13:43;;;;;;;24.57;19.00;;;;;;;13.77;93.99;99192.94;5032446;28;20282;-67
2023/10/21 01:16:09;;;;;;;26.50;18.70;;;;;;;13.68;94.34;99195.06;5032743;28;20282;-66
2023/10/21 01:18:38;;;;;;;24.50;17.63;;;;;;;13.66;94.39;99197.16;5032772;28;20197;-66
2023/10/21 01:21:05;;;;;;;26.93;18.07;;;;;;;13.62;93.89;99198.66;5032556;28;20197;-66
2023/10/21 01:23:34;;;;;;;22.90;17.77;;;;;;;13.56;93.94;99194.19;5032355;28;20676;-66
2023/10/21 01:26:01;;;;;;;24.03;18.63;;;;;;;13.57;93.97;99192.34;5032226;28;20689;-66
2023/10/21 01:28:29;;;;;;;24.70;18.63;;;;;;;13.62;94.23;99198.66;5032596;28;20197;-67
2023/10/21 01:30:56;;;;;;;31.87;18.13;;;;;;;13.62;93.26;99190.63;5032071;28;20229;-66
2023/10/21 01:33:23;;;;;;;27.43;18.87;;;;;;;13.61;93.44;99183.69;5032501;28;20225;-66
2023/10/21 01:35:50;;;;;;;22.80;18.40;;;;;;;13.62;93.59;99187.97;5032200;28;20221;-67
2023/10/21 01:38:16;;;;;;;26.60;18.13;;;;;;;13.63;93.23;99191.44;5032014;28;20636;-67
2023/10/21 01:40:44;;;;;;;28.97;18.00;;;;;;;13.62;92.88;99189.81;5031900;28;20619;-66
2023/10/21 01:43:11;;;;;;;22.37;16.70;;;;;;;13.64;93.16;99198.44;5021129;28;20344;-66
2023/10/21 01:45:38;;;;;;;19.97;16.13;;;;;;;13.64;92.92;99204.56;5012226;28;20728;-67
2023/10/21 01:48:06;;;;;;;22.17;17.27;;;;;;;13.62;92.46;99206.66;5012527;28;20272;-66
2023/10/21 01:50:33;;;;;;;19.20;16.47;;;;;;;13.43;92.13;99213.00;5012348;28;20630;-66
2023/10/21 01:52:59;;;;;;;27.57;18.80;;;;;;;13.30;92.30;99209.63;5012009;28;20275;-67
2023/10/21 01:55:26;;;;;;;25.10;18.00;;;;;;;13.33;93.48;99204.69;5012335;28;20197;-69
2023/10/21 01:57:54;;;;;;;33.03;18.07;;;;;;;13.38;93.95;99210.19;5012373;28;20572;-68
2023/10/21 02:00:22;;;;;;;19.80;17.60;;;;;;;13.37;93.71;99213.06;5011687;28;20682;-67
2023/10/21 02:02:53;;;;;;;23.27;18.03;;;;;;;13.39;93.83;99217.16;5011674;28;20675;-67
2023/10/21 02:05:20;;;;;;;27.60;17.67;;;;;;;13.42;93.35;99216.72;5012135;28;20649;-67
2023/10/21 02:07:47;;;;;;;22.67;17.93;;;;;;;13.45;93.55;99229.63;5011952;28;20665;-66
2023/10/21 02:10:13;;;;;;;21.17;16.90;;;;;;;13.48;93.77;99221.16;5012106;28;20202;-67
2023/10/21 02:12:40;;;;;;;24.07;17.77;;;;;;;13.44;93.64;99216.50;5011745;28;20221;-67
2023/10/21 02:15:11;;;;;;;29.33;17.83;;;;;;;13.44;93.97;99219.16;5011711;28;20190;-67
2023/10/21 02:17:39;;;;;;;23.57;17.23;;;;;;;13.48;93.18;99231.03;5012341;28;20192;-67
2023/10/21 02:20:07;;;;;;;22.17;17.17;;;;;;;13.51;93.29;99235.91;5011716;28;20673;-67
2023/10/21 02:22:34;;;;;;;21.40;17.47;;;;;;;13.53;92.89;99245.34;5012335;28;20198;-67
2023/10/21 02:25:01;;;;;;;22.37;17.63;;;;;;;13.52;93.35;99238.34;5011994;28;20587;-67
2023/10/21 02:27:28;;;;;;;19.47;16.40;;;;;;;13.39;92.67;99240.34;5011806;28;20727;-67
2023/10/21 02:29:54;;;;;;;20.50;16.97;;;;;;;13.19;94.43;99248.53;5012239;28;20253;-67
2023/10/21 02:32:23;;;;;;;23.90;17.10;;;;;;;13.28;94.80;99252.53;5011497;28;20517;-67
2023/10/21 02:34:54;;;;;;;22.43;17.17;;;;;;;13.34;93.93;99248.19;5011876;28;20668;-67
2023/10/21 02:37:20;;;;;;;26.50;17.67;;;;;;;13.31;93.68;99252.09;5011986;28;20266;-66
2023/10/21 02:39:47;;;;;;;24.20;17.40;;;;;;;13.20;94.98;99268.84;5011569;28;20657;-66
2023/10/21 02:42:14;;;;;;;23.73;18.17;;;;;;;12.77;95.81;99248.41;5014709;28;20193;-66
2023/10/21 02:44:41;;;;;;;23.53;17.27;;;;;;;12.81;97.35;99261.09;5031224;28;20618;-66
2023/10/21 02:47:07;;;;;;;21.50;17.60;;;;;;;12.87;96.77;99254.91;5031710;28;20193;-67
2023/10/21 02:49:35;;;;;;;23.07;17.93;;;;;;;12.87;96.78;99260.22;5031634;28;20251;-66
2023/10/21 02:52:02;;;;;;;22.50;17.80;;;;;;;12.69;96.68;99262.00;5031316;28;20197;-67
2023/10/21 02:54:30;;;;;;;28.23;18.33;;;;;;;12.44;97.47;99248.63;5031525;28;20197;-66
2023/10/21 02:56:57;;;;;;;23.57;18.63;;;;;;;12.42;98.53;99256.00;5031374;28;20193;-67
2023/10/21 02:59:24;;;;;;;22.67;17.93;;;;;;;12.40;99.32;99263.41;5031161;28;20197;-67
2023/10/21 03:01:50;;;;;;;22.77;18.60;;;;;;;12.54;99.50;99264.97;5031024;28;20661;-67
2023/10/21 03:04:17;;;;;;;25.23;18.00;;;;;;;12.67;98.59;99264.91;5031411;28;20259;-67
2023/10/21 03:06:45;;;;;;;24.20;17.20;;;;;;;12.74;97.94;99270.97;5031069;28;20197;-68
2023/10/21 03:09:12;;;;;;;26.90;17.97;;;;;;;12.80;97.60;99280.81;5031422;28;20247;-67
2023/10/21 03:11:39;;;;;;;22.10;17.67;;;;;;;12.84;97.03;99286.50;5031207;28;20606;-68
2023/10/21 03:14:06;;;;;;;20.57;16.87;;;;;;;12.74;97.14;99278.97;5034753;28;20734;-68
2023/10/21 03:16:32;;;;;;;22.27;17.97;;;;;;;12.85;96.45;99291.63;5035282;28;20193;-68
2023/10/21 03:18:59;;;;;;;20.47;16.87;;;;;;;12.75;96.78;99288.63;5035239;28;20193;-67
2023/10/21 03:21:26;;;;;;;23.17;18.60;;;;;;;12.82;96.19;99283.25;5034583;28;20254;-68
2023/10/21 03:23:54;;;;;;;21.83;17.27;;;;;;;12.89;96.52;99289.34;5034954;28;20196;-68
2023/10/21 03:26:21;;;;;;;28.23;18.03;;;;;;;12.96;95.67;99292.78;5034834;28;20193;-67
2023/10/21 03:28:50;;;;;;;21.10;16.73;;;;;;;12.84;95.11;99292.66;5034506;28;20565;-67
2023/10/21 03:31:17;;;;;;;20.27;16.27;;;;;;;12.60;95.63;99282.78;5034753;28;20200;-66
2023/10/21 03:33:44;;;;;;;24.23;16.90;;;;;;;12.62;96.64;99299.34;5034482;28;20273;-66
2023/10/21 03:36:10;;;;;;;20.70;17.70;;;;;;;12.75;96.49;99295.78;5034334;28;20201;-66
2023/10/21 03:38:37;;;;;;;23.60;17.13;;;;;;;12.81;96.98;99297.59;5034691;28;20197;-67
2023/10/21 03:41:08;;;;;;;28.93;18.40;;;;;;;12.85;95.89;99304.97;5034329;28;20673;-67
2023/10/21 03:43:35;;;;;;;19.30;17.13;;;;;;;12.80;95.68;99301.28;5019908;28;20708;-67
2023/10/21 03:46:04;;;;;;;25.93;17.63;;;;;;;12.88;96.55;99283.22;5014397;28;20198;-68
2023/10/21 03:48:31;;;;;;;25.07;17.33;;;;;;;12.95;95.78;99289.28;5014741;28;20720;-67
2023/10/21 03:51:04;;;;;;;21.93;16.93;;;;;;;12.98;95.17;99299.56;5014771;28;20213;-67
2023/10/21 03:53:31;;;;;;;25.03;17.53;;;;;;;12.83;95.45;99279.56;5014623;28;20689;-67
2023/10/21 03:55:57;;;;;;;24.10;16.87;;;;;;;12.89;96.00;99290.16;5014515;28;20272;-68
2023/10/21 03:58:26;;;;;;;20.80;17.00;;;;;;;12.89;96.21;99295.50;5014143;28;20206;-68
2023/10/21 04:00:53;;;;;;;20.70;16.27;;;;;;;12.90;95.80;99280.34;5014230;28;20193;-69
2023/10/21 04:03:21;;;;;;;29.43;17.53;;;;;;;12.96;95.57;99290.94;5014272;28;20608;-68
2023/10/21 04:05:47;;;;;;;26.33;17.43;;;;;;;12.97;95.24;99270.41;5014121;28;20665;-67
2023/10/21 04:08:14;;;;;;;25.60;16.80;;;;;;;12.87;94.70;99270.88;5013963;28;20638;-65
2023/10/21 04:10:41;;;;;;;26.80;16.30;;;;;;;12.93;95.60;99275.38;5014412;28;20201;-66
2023/10/21 04:13:08;;;;;;;23.00;15.27;;;;;;;13.03;95.45;99280.25;5013848;28;20276;-66
2023/10/21 04:15:36;;;;;;;23.87;16.80;;;;;;;13.10;94.83;99275.66;5014284;28;20197;-66
2023/10/21 04:18:02;;;;;;;22.27;17.17;;;;;;;13.02;93.73;99267.97;5013821;28;20692;-67
2023/10/21 04:20:31;;;;;;;22.23;16.40;;;;;;;13.05;94.18;99279.00;5014266;28;20252;-67
2023/10/21 04:22:58;;;;;;;27.97;17.50;;;;;;;12.94;94.15;99277.00;5014032;28;20256;-66
2023/10/21 04:25:25;;;;;;;22.37;17.70;;;;;;;12.91;95.01;99274.75;5013420;28;20228;-66
2023/10/21 04:27:51;;;;;;;23.83;17.33;;;;;;;12.75;95.08;99267.31;5014002;28;20197;-66
2023/10/21 04:30:18;;;;;;;18.17;16.20;;;;;;;12.44;97.15;99271.78;5014191;28;20267;-66
2023/10/21 04:32:46;;;;;;;27.47;17.23;;;;;;;12.36;97.60;99264.88;5013788;28;20259;-66
2023/10/21 04:35:13;;;;;;;20.60;16.17;;;;;;;12.35;98.88;99268.56;5013632;28;20326;-66
2023/10/21 04:37:40;;;;;;;27.20;17.87;;;;;;;12.14;99.40;99276.88;5013389;28;20198;-67
2023/10/21 04:40:08;;;;;;;25.80;17.80;;;;;;;12.17;100.00;99281.75;5013310;28;20722;-68
2023/10/21 04:42:35;;;;;;;25.13;18.43;;;;;;;12.17;100.00;99289.72;5019556;28;20223;-67
2023/10/21 04:45:02;;;;;;;36.07;19.77;;;;;;;12.14;100.00;99294.66;5022535;28;20193;-68
2023/10/21 04:47:29;;;;;;;35.23;18.20;;;;;;;12.23;100.00;99296.88;5019359;28;20548;-68
2023/10/21 04:49:57;;;;;;;27.03;19.07;;;;;;;12.29;100.00;99297.91;5023150;28;20283;-68
2023/10/21 04:52:24;;;;;;;28.67;19.23;;;;;;;12.35;100.00;99303.19;5023924;28;20635;-70
2023/10/21 04:54:51;;;;;;;29.63;17.87;;;;;;;12.42;99.99;99303.94;5022024;28;20214;-67
2023/10/21 04:57:18;;;;;;;20.63;17.47;;;;;;;12.54;99.24;99301.47;5022344;28;20708;-67
2023/10/21 04:59:45;;;;;;;22.13;17.33;;;;;;;12.66;99.21;99316.53;5023469;28;20591;-68
2023/10/21 05:02:12;;;;;;;23.97;17.30;;;;;;;12.78;98.66;99312.16;5022133;28;20277;-67
2023/10/21 05:04:40;;;;;;;19.03;16.67;;;;;;;12.81;98.31;99314.41;5022102;28;20668;-67
2023/10/21 05:07:08;;;;;;;26.30;16.37;;;;;;;12.64;98.65;99293.81;5021933;28;20190;-67
2023/10/21 05:09:35;;;;;;;30.43;17.23;;;;;;;12.85;98.26;99320.94;5022524;28;20615;-67
2023/10/21 05:12:02;;;;;;;19.33;17.00;;;;;;;12.84;98.25;99324.66;5023172;28;20188;-68
2023/10/21 05:14:28;;;;;;;26.03;17.37;;;;;;;13.04;98.23;99324.56;5021333;28;20237;-67
2023/10/21 05:16:55;;;;;;;26.30;16.87;;;;;;;13.09;98.28;99314.88;5022659;28;20243;-68
2023/10/21 05:19:22;;;;;;;24.60;15.27;;;;;;;13.21;96.24;99331.81;5022810;28;20194;-67
2023/10/21 05:21:49;;;;;;;20.70;16.03;;;;;;;13.30;96.37;99325.19;5021343;28;20190;-68
2023/10/21 05:24:17;;;;;;;19.13;15.47;;;;;;;13.43;94.90;99335.72;5022296;28;20280;-67
2023/10/21 05:26:45;;;;;;;21.77;14.77;;;;;;;13.59;94.70;99339.69;5017740;28;20197;-67
2023/10/21 05:29:15;;;;;;;21.73;14.30;;;;;;;13.75;94.45;99339.97;5026157;28;20186;-67
2023/10/21 05:31:42;;;;;;;17.60;14.33;;;;;;;13.96;91.66;99349.41;5021783;28;20198;-67
2023/10/21 05:34:09;;;;;;;18.30;13.93;;;;;;;14.12;90.28;99360.34;5020094;28;20237;-64
2023/10/21 05:36:35;;;;;;;15.63;11.93;;;;;;;14.29;93.26;99352.59;5022177;28;20252;-65
2023/10/21 05:39:03;;;;;;;21.13;13.27;;;;;;;14.49;87.71;99372.69;5021333;28;20229;-64
2023/10/21 05:41:31;;;;;;;14.10;11.37;;;;;;;14.88;89.82;99380.22;5020952;28;20680;-64
2023/10/21 05:43:58;;;;;;;16.53;13.07;;;;;;;14.87;84.82;99367.88;5023077;28;20190;-65
2023/10/21 05:46:25;;;;;;;13.27;11.93;;;;;;;15.70;83.70;99398.97;5017861;28;20198;-64
2023/10/21 05:48:51;;;;;;;21.73;12.10;;;;;;;15.46;82.95;99386.59;5018521;28;20291;-65
2023/10/21 05:51:18;;;;;;;16.63;12.50;;;;;;;16.22;79.02;99412.50;5020683;28;20190;-64
2023/10/21 05:53:45;;;;;;;15.80;10.53;;;;;;;16.12;81.65;99390.84;5021125;28;20217;-64
2023/10/21 05:56:12;;;;;;;12.27;10.87;;;;;;;16.82;76.42;99416.53;5018494;28;20190;-65
2023/10/21 05:58:42;;;;;;;12.70;10.13;;;;;;;16.72;76.42;99405.56;5021264;28;20569;-65
2023/10/21 06:01:10;;;;;;;23.70;12.20;;;;;;;16.73;75.51;99408.03;5021222;28;20181;-65
2023/10/21 06:03:37;;;;;;;19.93;9.73;;;;;;;17.42;75.68;99412.31;5019743;28;20298;-64
2023/10/21 06:06:04;;;;;;;18.17;12.83;;;;;;;17.33;73.62;99413.75;5019683;28;20720;-62
2023/10/21 06:08:31;;;;;;;16.97;11.27;;;;;;;17.92;72.70;99418.56;5016479;28;20295;-61
2023/10/21 06:10:57;;;;;;;19.93;12.33;;;;;;;17.87;73.77;99421.13;5011496;28;20258;-61
2023/10/21 06:13:24;;;;;;;17.97;10.43;;;;;;;18.70;71.42;99425.34;5010997;28;20662;-62
2023/10/21 06:15:53;;;;;;;19.03;11.43;;;;;;;19.21;68.49;99424.06;5011567;28;20234;-62
2023/10/21 06:18:20;;;;;;;23.73;11.40;;;;;;;19.36;66.65;99426.97;5011825;28;20263;-62
2023/10/21 06:20:48;;;;;;;20.17;11.30;;;;;;;19.82;66.50;99427.13;5011615;28;20194;-61
2023/10/21 06:23:16;;;;;;;22.53;10.53;;;;;;;20.06;64.95;99431.06;5011772;28;20198;-62
2023/10/21 06:25:43;;;;;;;19.77;10.37;;;;;;;20.08;64.10;99430.81;5011594;28;20204;-61
2023/10/21 06:28:09;;;;;;;15.90;9.53;;;;;;;20.56;64.60;99436.03;5011750;28;20197;-63
2023/10/21 06:30:36;;;;;;;16.17;10.10;;;;;;;21.06;63.55;99433.59;5021334;28;20199;-64
2023/10/21 06:33:05;;;;;;;18.77;10.37;;;;;;;21.51;61.46;99430.19;5031408;28;20239;-64
2023/10/21 06:35:32;;;;;;;15.07;10.13;;;;;;;21.90;59.33;99429.44;5031207;28;20240;-65
2023/10/21 06:37:59;;;;;;;16.87;10.27;;;;;;;22.31;57.45;99422.91;5031591;28;20197;-65
2023/10/21 06:40:25;;;;;;;21.33;9.00;;;;;;;22.75;56.21;99426.59;5030994;28;20633;-64
2023/10/21 06:42:52;;;;;;;14.70;8.83;;;;;;;23.17;54.33;99443.22;5022544;28;20197;-65
2023/10/21 06:45:19;;;;;;;11.53;8.80;;;;;;;23.54;52.77;99429.22;5011836;28;20201;-64
2023/10/21 06:47:46;;;;;;;18.90;9.27;;;;;;;23.78;51.78;99436.38;5010592;28;20573;-65
2023/10/21 06:50:14;;;;;;;11.57;8.90;;;;;;;24.01;51.22;99430.22;5010196;28;20195;-65
2023/10/21 06:52:41;;;;;;;16.03;9.20;;;;;;;24.10;51.59;99417.66;5015551;28;20195;-65
2023/10/21 06:55:10;;;;;;;35.93;13.43;;;;;;;24.26;50.25;99427.28;5014735;28;20278;-65
2023/10/21 06:57:37;;;;;;;21.43;9.27;;;;;;;24.34;51.22;99434.78;5015473;28;20200;-66
2023/10/21 07:00:05;;;;;;;19.77;10.33;;;;;;;24.54;50.75;99434.59;5014820;28;20668;-66
2023/10/21 07:02:32;;;;;;;21.93;10.33;;;;;;;24.68;50.05;99432.84;5015152;28;20196;-66
2023/10/21 07:04:59;;;;;;;20.73;10.10;;;;;;;24.88;50.38;99429.09;5014813;28;20217;-66
2023/10/21 07:07:27;;;;;;;17.70;9.63;;;;;;;24.98;49.39;99436.31;5015314;28;20281;-66
2023/10/21 07:09:53;;;;;;;17.63;12.93;;;;;;;25.11;48.71;99438.31;5013961;28;20661;-66
2023/10/21 07:12:20;;;;;;;16.03;12.73;;;;;;;25.25;48.17;99423.69;5013444;28;20252;-68
2023/10/21 07:14:49;;;;;;;17.13;11.30;;;;;;;25.36;46.53;99427.13;5019126;28;20282;-66
2023/10/21 07:17:15;;;;;;;21.77;12.13;;;;;;;25.21;47.27;99427.28;5030631;28;20666;-66
2023/10/21 07:19:42;;;;;;;36.07;19.17;;;;;;;25.26;48.39;99428.03;5028088;28;20193;-66
2023/10/21 07:22:09;;;;;;;33.63;17.17;;;;;;;25.38;48.20;99430.34;5019082;28;20652;-66
2023/10/21 07:24:37;;;;;;;27.30;15.47;;;;;;;25.43;47.60;99433.00;5020731;28;20198;-68
2023/10/21 07:27:05;;;;;;;29.20;14.67;;;;;;;25.31;48.04;99427.19;5025757;28;20252;-66
2023/10/21 07:29:32;;;;;;;27.43;15.30;;;;;;;25.40;47.93;99428.16;5004165;28;20248;-67
2023/10/21 07:31:59;;;;;;;30.43;17.57;;;;;;;25.62;48.27;99418.28;5005429;28;20221;-67
2023/10/21 07:34:25;;;;;;;48.40;23.73;;;;;;;25.66;48.48;99427.47;5004167;28;20290;-67
2023/10/21 07:36:52;;;;;;;21.63;13.80;;;;;;;25.79;48.35;99423.19;5019183;28;20647;-69
2023/10/21 07:39:19;;;;;;;20.20;13.23;;;;;;;25.78;48.04;99424.31;5022867;28;20259;-66
2023/10/21 07:41:49;;;;;;;32.10;14.60;;;;;;;25.84;48.00;99420.41;5021297;28;20689;-65
2023/10/21 07:44:16;;;;;;;26.27;14.27;;;;;;;25.96;48.78;99418.84;5022594;28;20749;-64
2023/10/21 07:46:42;;;;;;;17.73;13.03;;;;;;;25.96;47.72;99418.06;5022995;28;20189;-65
2023/10/21 07:49:09;;;;;;;19.60;13.67;;;;;;;26.03;47.88;99418.47;5017886;28;20214;-64
2023/10/21 07:51:36;;;;;;;17.60;13.07;;;;;;;26.09;47.97;99417.28;5022873;28;20193;-64
2023/10/21 07:54:03;;;;;;;19.40;12.93;;;;;;;25.91;46.94;99420.81;5020169;28;20763;-64
2023/10/21 07:56:29;;;;;;;25.93;13.67;;;;;;;25.88;49.44;99416.78;5023417;28;20185;-65
2023/10/21 07:58:57;;;;;;;18.33;12.53;;;;;;;25.96;48.30;99418.06;5023779;28;20245;-65
2023/10/21 08:01:24;;;;;;;17.13;13.07;;;;;;;26.14;47.93;99419.91;5020719;28;20189;-64
2023/10/21 08:03:53;;;;;;;25.43;12.67;;;;;;;26.32;49.17;99424.47;5023194;28;20661;-65
2023/10/21 08:06:20;;;;;;;23.23;12.93;;;;;;;26.50;51.43;99413.50;5024580;28;20205;-65
2023/10/21 08:08:46;;;;;;;18.93;12.93;;;;;;;26.80;49.35;99401.25;5023006;28;20240;-65
2023/10/21 08:11:13;;;;;;;21.20;13.57;;;;;;;26.79;46.43;99416.00;5022558;28;20629;-62
2023/10/21 08:13:40;;;;;;;17.03;12.40;;;;;;;26.78;47.23;99408.94;5027757;28;20189;-64
2023/10/21 08:16:08;;;;;;;16.27;13.10;;;;;;;26.74;47.55;99407.91;5018061;28;20281;-66
2023/10/21 08:18:35;;;;;;;21.80;12.30;;;;;;;26.67;48.31;99394.69;5013650;28;20198;-66
2023/10/21 08:21:02;;;;;;;18.67;10.73;;;;;;;26.72;49.27;99404.69;5013877;28;20198;-66
2023/10/21 08:23:29;;;;;;;26.30;11.93;;;;;;;26.92;47.22;99398.81;4999366;28;20199;-68
2023/10/21 08:25:57;;;;;;;18.90;11.80;;;;;;;26.84;47.52;99407.69;4994280;28;20238;-68
2023/10/21 08:28:24;;;;;;;12.70;11.40;;;;;;;26.59;49.12;99405.47;4994136;28;20194;-67
2023/10/21 08:30:51;;;;;;;14.23;10.47;;;;;;;26.22;50.53;99394.72;4993907;28;20198;-67
2023/10/21 08:33:19;;;;;;;14.93;10.97;;;;;;;26.37;50.38;99397.16;5001763;28;20236;-68
2023/10/21 08:35:46;;;;;;;18.73;10.47;;;;;;;26.57;49.57;99394.03;5031512;28;20283;-67
2023/10/21 08:38:13;;;;;;;15.90;10.43;;;;;;;26.64;50.35;99394.47;5033140;28;20225;-67
2023/10/21 08:40:41;;;;;;;16.93;10.57;;;;;;;26.76;49.75;99401.06;5033395;28;20217;-67
2023/10/21 08:43:09;;;;;;;13.63;10.27;;;;;;;26.81;49.07;99397.41;5022899;28;20218;-61
2023/10/21 08:45:36;;;;;;;12.77;8.37;;;;;;;26.33;50.57;99390.72;5013390;28;20733;-60
2023/10/21 08:48:04;;;;;;;12.80;8.03;;;;;;;26.50;49.56;99396.38;5013231;28;20224;-61
2023/10/21 08:50:35;;;;;;;10.20;8.60;;;;;;;26.06;51.09;99390.66;5012992;28;20244;-61
2023/10/21 08:53:06;;;;;;;10.33;8.07;;;;;;;26.12;51.40;99386.72;5013495;28;20222;-68
2023/10/21 08:55:35;;;;;;;18.43;8.33;;;;;;;26.44;51.18;99386.66;5012826;28;20214;-68
2023/10/21 08:58:02;;;;;;;13.53;8.10;;;;;;;26.42;50.51;99383.44;5012653;28;20248;-68
2023/10/21 09:00:28;;;;;;;11.83;7.57;;;;;;;26.21;51.57;99383.00;5012235;28;20198;-70
2023/10/21 09:02:55;;;;;;;13.10;8.93;;;;;;;25.94;52.14;99366.63;5012966;28;20201;-68
2023/10/21 09:05:22;;;;;;;11.10;7.70;;;;;;;26.19;52.28;99368.91;5013309;28;20193;-68
2023/10/21 09:07:50;;;;;;;15.70;7.97;;;;;;;26.31;51.72;99376.56;5012772;28;20654;-68
2023/10/21 09:10:18;;;;;;;10.67;7.47;;;;;;;26.41;51.06;99385.34;5012014;28;20220;-68
2023/10/21 09:12:45;;;;;;;11.60;7.63;;;;;;;26.56;50.99;99370.63;5013301;28;20198;-69
2023/10/21 09:15:12;;;;;;;8.53;7.23;;;;;;;26.84;50.41;99369.53;5012162;28;20256;-69
2023/10/21 09:17:41;;;;;;;15.63;7.80;;;;;;;27.03;49.97;99368.28;5012486;28;20201;-69
2023/10/21 09:20:11;;;;;;;10.53;7.50;;;;;;;26.73;51.29;99362.66;5012759;28;20201;-68
2023/10/21 09:22:38;;;;;;;13.13;8.13;;;;;;;26.69;50.91;99351.59;5012435;28;20655;-69
2023/10/21 09:25:15;;;;;;;8.43;7.23;;;;;;;26.95;51.10;99357.31;5012581;28;20202;-68
2023/10/21 09:27:43;;;;;;;7.70;6.90;;;;;;;27.00;50.61;99359.91;5012374;28;20279;-66
2023/10/21 09:30:16;;;;;;;9.47;6.83;;;;;;;27.20;50.30;99349.38;5012460;28;20194;-69
2023/10/21 09:32:42;;;;;;;8.37;6.73;;;;;;;27.01;50.53;99336.97;5012720;28;20631;-69
2023/10/21 09:35:21;;;;;;;11.17;7.40;;;;;;;27.23;50.53;99345.25;5012802;28;20241;-69
2023/10/21 09:37:48;;;;;;;8.03;7.30;;;;;;;27.44;49.68;99338.19;5012484;28;20186;-69
2023/10/21 09:40:17;;;;;;;9.50;6.93;;;;;;;27.51;48.34;99341.28;5012227;28;20628;-69
2023/10/21 09:42:46;;;;;;;13.67;7.13;;;;;;;27.55;48.70;99342.28;5011341;28;20190;-69
2023/10/21 09:45:15;;;;;;;7.17;6.17;;;;;;;27.55;48.51;99336.81;4992757;28;20210;-69
2023/10/21 09:47:43;;;;;;;6.93;6.23;;;;;;;27.59;48.32;99326.88;4992960;28;20194;-69
2023/10/21 09:50:11;;;;;;;6.80;6.23;;;;;;;27.49;48.13;99319.78;4992349;28;20334;-68
2023/10/21 09:52:45;;;;;;;7.13;6.37;;;;;;;27.43;47.97;99314.75;4992655;28;20257;-68
2023/10/21 09:55:12;;;;;;;8.47;6.23;;;;;;;27.49;48.12;99321.69;4992503;28;20249;-68
2023/10/21 09:57:42;;;;;;;7.40;5.73;;;;;;;27.63;47.81;99317.78;4992479;28;20269;-69
2023/10/21 10:00:10;;;;;;;10.30;6.27;;;;;;;27.72;47.22;99304.19;4992270;28;20624;-69
2023/10/21 10:02:37;;;;;;;9.27;5.67;;;;;;;27.22;46.80;99313.63;4992097;28;20627;-69
2023/10/21 10:05:07;;;;;;;6.67;5.97;;;;;;;26.99;48.85;99306.50;4992029;28;20195;-68
2023/10/21 10:07:36;;;;;;;6.63;5.40;;;;;;;27.10;46.97;99308.69;4991995;28;20237;-69
2023/10/21 10:10:06;;;;;;;8.70;5.97;;;;;;;27.06;47.12;99302.22;4991899;28;20197;-68
2023/10/21 10:12:37;;;;;;;8.93;6.60;;;;;;;27.23;46.94;99302.41;4999388;28;20768;-69
2023/10/21 10:15:31;;;;;;;7.73;6.77;;;;;;;26.84;47.75;99291.28;5002123;28;20745;-69
2023/10/21 10:17:58;;;;;;;9.60;6.50;;;;;;;26.83;48.16;99286.16;5012774;28;20181;-69
2023/10/21 10:20:27;;;;;;;11.07;7.90;;;;;;;27.18;48.02;99288.84;5031534;28;20253;-69
2023/10/21 10:22:59;;;;;;;12.13;8.07;;;;;;;27.26;47.00;99284.59;5030632;28;20255;-69
2023/10/21 10:25:27;;;;;;;11.37;8.80;;;;;;;27.33;46.89;99280.34;5021878;28;20752;-69
2023/10/21 10:27:58;;;;;;;13.67;8.53;;;;;;;27.44;47.24;99275.44;5030854;28;20204;-69
2023/10/21 10:30:30;;;;;;;10.87;7.60;;;;;;;27.54;46.35;99272.44;5023991;28;20237;-70
2023/10/21 10:33:06;;;;;;;16.87;8.10;;;;;;;27.09;47.68;99273.53;5011732;28;20662;-69
2023/10/21 10:35:34;;;;;;;13.60;7.40;;;;;;;27.32;46.92;99277.94;5020040;28;20231;-69
2023/10/21 10:38:02;;;;;;;14.77;7.43;;;;;;;27.42;46.31;99255.81;5019418;28;20292;-69
2023/10/21 10:40:37;;;;;;;14.23;7.40;;;;;;;27.49;46.60;99261.66;5020592;28;20196;-69
2023/10/21 10:43:04;;;;;;;12.17;7.17;;;;;;;27.52;45.98;99266.50;5019633;28;20224;-69
2023/10/21 10:45:34;;;;;;;8.20;6.27;;;;;;;27.59;46.10;99251.28;5021602;28;20190;-68
2023/10/21 10:48:03;;;;;;;11.30;6.67;;;;;;;27.76;46.01;99256.06;5023167;28;20588;-73
2023/10/21 10:50:31;;;;;;;8.33;7.17;;;;;;;27.73;45.39;99259.41;5016989;28;20229;-71
2023/10/21 10:52:59;;;;;;;7.87;6.43;;;;;;;27.70;45.23;99257.28;5026233;28;20191;-70
2023/10/21 10:55:26;;;;;;;17.20;7.07;;;;;;;27.74;45.76;99247.34;5010436;28;20269;-70
2023/10/21 10:57:53;;;;;;;12.47;7.47;;;;;;;27.73;45.79;99229.38;5013483;28;20268;-72
2023/10/21 11:00:25;;;;;;;17.20;7.63;;;;;;;27.91;45.49;99247.47;5009411;28;20422;-63
2023/10/21 11:02:53;;;;;;;10.93;7.27;;;;;;;27.59;45.35;99255.94;5016975;28;20256;-64
2023/10/21 11:05:22;;;;;;;7.97;6.67;;;;;;;27.55;44.72;99244.03;5011248;28;20213;-62
2023/10/21 11:07:49;;;;;;;13.87;6.27;;;;;;;27.54;44.51;99243.25;5026700;28;20628;-63
2023/10/21 11:10:20;;;;;;;18.17;9.27;;;;;;;27.54;44.72;99247.88;5028939;28;20259;-63
2023/10/21 11:12:48;;;;;;;9.17;6.37;;;;;;;27.35;45.44;99229.00;5029708;28;20242;-63
2023/10/21 11:15:16;;;;;;;15.40;6.70;;;;;;;27.49;45.69;99232.47;5030372;28;20260;-63
2023/10/21 11:17:43;;;;;;;10.45;7.22;;;;;;;27.24;45.17;99237.75;5029872;28;20884;-63
2023/10/21 11:20:13;;;;;;;13.83;7.27;;;;;;;27.37;45.42;99236.88;5030621;28;20695;-63